createdAt,value
2019-03-06T00:01:02.637Z,2.80
2019-03-06T00:03:35.223Z,2.90
2019-03-06T00:06:06.253Z,2.80
2019-03-06T00:08:36.935Z,2.80
2019-03-06T00:11:07.319Z,2.70
2019-03-06T00:13:37.592Z,2.80
2019-03-06T00:16:08.009Z,2.70
2019-03-06T00:18:38.387Z,2.90
2019-03-06T00:21:09.323Z,3.00
2019-03-06T00:23:39.821Z,3.10
2019-03-06T00:26:10.344Z,3.10
2019-03-06T00:28:40.685Z,3.10
2019-03-06T00:31:11.999Z,3.10
2019-03-06T00:33:42.356Z,3.00
2019-03-06T00:36:19.455Z,3.00
2019-03-06T00:38:49.437Z,3.00
2019-03-06T00:41:25.260Z,3.00
2019-03-06T00:43:55.673Z,3.00
2019-03-06T00:46:28.383Z,3.10
2019-03-06T00:48:58.710Z,3.00
2019-03-06T00:51:30.411Z,3.00
2019-03-06T00:54:00.715Z,3.00
2019-03-06T00:56:31.200Z,3.00
2019-03-06T00:59:01.548Z,3.00
2019-03-06T01:01:32.008Z,3.00
2019-03-06T01:04:02.280Z,3.00
2019-03-06T01:06:33.293Z,3.20
2019-03-06T01:09:05.139Z,3.30
2019-03-06T01:11:35.960Z,3.30
2019-03-06T01:14:06.255Z,3.30
2019-03-06T01:16:36.536Z,3.30
2019-03-06T01:19:07.892Z,3.20
2019-03-06T01:21:38.520Z,3.20
2019-03-06T01:24:08.804Z,3.20
2019-03-06T01:26:39.184Z,3.10
2019-03-06T01:29:09.600Z,3.20
2019-03-06T01:31:39.928Z,3.10
2019-03-06T01:34:20.824Z,3.00
2019-03-06T01:37:16.543Z,3.00
2019-03-06T01:40:05.901Z,3.00
2019-03-06T01:42:43.820Z,2.90
2019-03-06T01:45:14.483Z,2.90
2019-03-06T01:47:44.710Z,2.90
2019-03-06T01:50:16.040Z,2.90
2019-03-06T01:52:46.748Z,3.00
2019-03-06T01:55:17.293Z,3.00
2019-03-06T01:57:48.657Z,3.00
2019-03-06T02:00:19.613Z,3.00
2019-03-06T02:02:49.992Z,3.00
2019-03-06T02:05:20.508Z,3.00
2019-03-06T02:07:51.120Z,3.00
2019-03-06T02:10:23.130Z,2.90
2019-03-06T02:12:53.524Z,3.10
2019-03-06T02:15:24.094Z,3.10
2019-03-06T02:17:54.436Z,3.00
2019-03-06T02:20:25.010Z,3.10
2019-03-06T02:22:55.472Z,3.10
2019-03-06T02:25:27.336Z,3.10
2019-03-06T02:27:57.614Z,3.10
2019-03-06T02:30:28.145Z,3.20
2019-03-06T02:32:59.234Z,3.20
2019-03-06T02:35:29.731Z,3.10
2019-03-06T02:38:00.286Z,3.20
2019-03-06T02:40:30.753Z,3.20
2019-03-06T02:43:02.124Z,3.20
2019-03-06T02:45:32.697Z,3.20
2019-03-06T02:48:02.968Z,3.20
2019-03-06T02:50:33.405Z,3.30
2019-03-06T02:53:04.038Z,3.30
2019-03-06T02:55:35.492Z,3.40
2019-03-06T02:58:14.464Z,3.50
2019-03-06T03:01:12.942Z,3.40
2019-03-06T03:04:16.937Z,3.40
2019-03-06T03:06:51.101Z,3.40
2019-03-06T03:09:21.494Z,3.50
2019-03-06T03:11:51.785Z,3.50
2019-03-06T03:14:22.392Z,3.60
2019-03-06T03:16:52.683Z,3.70
2019-03-06T03:19:23.162Z,3.60
2019-03-06T03:21:53.914Z,3.70
2019-03-06T03:24:24.781Z,3.80
2019-03-06T03:26:55.102Z,3.70
2019-03-06T03:29:25.452Z,3.80
2019-03-06T03:31:56.002Z,3.90
2019-03-06T03:34:26.284Z,4.00
2019-03-06T03:36:56.581Z,4.00
2019-03-06T03:39:27.276Z,4.10
2019-03-06T03:41:57.673Z,4.10
2019-03-06T03:44:28.174Z,4.00
2019-03-06T03:46:58.549Z,4.00
2019-03-06T03:49:28.962Z,3.90
2019-03-06T03:51:59.240Z,3.90
2019-03-06T03:54:29.715Z,3.90
2019-03-06T03:57:00.204Z,4.00
2019-03-06T03:59:30.859Z,4.10
2019-03-06T04:02:01.343Z,4.10
2019-03-06T04:04:33.407Z,4.10
2019-03-06T04:07:04.115Z,4.10
2019-03-06T04:09:34.572Z,4.00
2019-03-06T04:12:05.016Z,4.00
2019-03-06T04:14:35.394Z,4.00
2019-03-06T04:17:09.063Z,4.10
2019-03-06T04:19:39.415Z,4.10
2019-03-06T04:22:10.356Z,4.00
2019-03-06T04:24:40.802Z,4.00
2019-03-06T04:27:11.305Z,3.80
2019-03-06T04:29:41.524Z,3.70
2019-03-06T04:32:12.152Z,3.70
2019-03-06T04:34:42.411Z,3.70
2019-03-06T04:37:12.707Z,3.50
2019-03-06T04:39:43.431Z,3.40
2019-03-06T04:42:13.652Z,3.50
2019-03-06T04:44:44.137Z,3.60
2019-03-06T04:47:14.543Z,3.70
2019-03-06T04:49:52.406Z,3.80
2019-03-06T04:52:16.913Z,3.90
2019-03-06T04:54:47.905Z,4.00
2019-03-06T04:57:18.526Z,4.10
2019-03-06T04:59:48.954Z,4.10
2019-03-06T05:02:19.235Z,4.20
2019-03-06T05:04:52.126Z,4.10
2019-03-06T05:07:22.854Z,4.20
2019-03-06T05:09:53.533Z,4.30
2019-03-06T05:12:23.972Z,4.40
2019-03-06T05:14:54.600Z,4.50
2019-03-06T05:17:35.103Z,4.50
2019-03-06T05:20:05.768Z,4.60
2019-03-06T05:22:37.961Z,4.60
2019-03-06T05:25:11.862Z,4.70
2019-03-06T05:27:42.259Z,4.80
2019-03-06T05:30:12.849Z,4.80
2019-03-06T05:32:43.147Z,4.70
2019-03-06T05:35:26.930Z,4.60
2019-03-06T05:38:18.971Z,4.70
2019-03-06T05:40:49.803Z,4.70
2019-03-06T05:43:20.149Z,4.70
2019-03-06T05:45:51.153Z,4.70
2019-03-06T05:48:21.599Z,4.70
2019-03-06T05:50:52.259Z,4.70
2019-03-06T05:53:22.727Z,4.80
2019-03-06T05:55:53.666Z,4.80
2019-03-06T05:58:23.973Z,4.80
2019-03-06T06:00:54.856Z,4.90
2019-03-06T06:03:27.933Z,4.90
2019-03-06T06:05:58.485Z,4.90
2019-03-06T06:08:28.993Z,4.90
2019-03-06T06:10:59.554Z,4.90
2019-03-06T06:13:32.724Z,4.90
2019-03-06T06:16:05.839Z,4.90
2019-03-06T06:18:36.139Z,5.00
2019-03-06T06:21:25.807Z,5.00
2019-03-06T06:23:59.372Z,5.00
2019-03-06T06:26:29.847Z,5.10
2019-03-06T06:29:00.193Z,5.10
2019-03-06T06:31:32.503Z,5.10
2019-03-06T06:34:02.793Z,5.20
2019-03-06T06:36:33.515Z,5.20
2019-03-06T06:39:05.596Z,5.30
2019-03-06T06:41:36.027Z,5.30
2019-03-06T06:44:06.715Z,5.30
2019-03-06T06:46:37.095Z,5.40
2019-03-06T06:49:07.443Z,5.40
2019-03-06T06:52:05.122Z,5.40
2019-03-06T06:55:03.005Z,5.40
2019-03-06T06:58:21.256Z,5.50
2019-03-06T07:01:47.757Z,5.50
2019-03-06T07:04:58.032Z,5.60
2019-03-06T07:07:41.098Z,5.50
2019-03-06T07:10:29.151Z,5.70
2019-03-06T07:13:18.668Z,5.80
2019-03-06T07:16:11.186Z,6.00
2019-03-06T07:19:00.529Z,6.00
2019-03-06T07:21:56.010Z,6.10
2019-03-06T07:24:44.244Z,6.10
2019-03-06T07:27:40.528Z,6.10
2019-03-06T07:30:19.569Z,6.00
2019-03-06T07:33:07.121Z,6.00
2019-03-06T07:36:20.441Z,6.10
2019-03-06T07:38:55.398Z,6.10
2019-03-06T07:41:44.094Z,6.20
2019-03-06T07:44:36.768Z,6.30
2019-03-06T07:47:34.458Z,6.40
2019-03-06T07:50:25.226Z,6.40
2019-03-06T07:53:48.761Z,6.40
2019-03-06T07:56:26.585Z,6.50
2019-03-06T07:58:58.428Z,6.40
2019-03-06T08:01:31.431Z,6.50
2019-03-06T08:04:10.680Z,6.50
2019-03-06T08:06:43.848Z,6.40
2019-03-06T08:09:19.393Z,6.40
2019-03-06T08:12:12.051Z,6.40
2019-03-06T08:15:13.564Z,6.40
2019-03-06T08:18:07.130Z,6.40
2019-03-06T08:21:07.834Z,6.50
2019-03-06T08:23:57.270Z,6.50
2019-03-06T08:26:28.639Z,6.50
2019-03-06T08:28:59.436Z,6.70
2019-03-06T08:31:49.180Z,6.50
2019-03-06T08:34:22.642Z,6.50
2019-03-06T08:36:58.026Z,6.40
2019-03-06T08:39:28.774Z,6.40
2019-03-06T08:41:59.800Z,6.30
2019-03-06T08:44:30.349Z,6.40
2019-03-06T08:47:16.286Z,6.40
2019-03-06T08:50:06.068Z,6.50
2019-03-06T08:52:47.207Z,6.70
2019-03-06T08:55:36.653Z,6.70
2019-03-06T08:58:15.329Z,6.70
2019-03-06T09:01:15.392Z,6.80
2019-03-06T09:03:55.476Z,6.90
2019-03-06T09:06:42.677Z,7.00
2019-03-06T09:09:35.960Z,6.90
2019-03-06T09:12:25.577Z,7.10
2019-03-06T09:15:21.226Z,7.30
2019-03-06T09:18:10.843Z,7.20
2019-03-06T09:21:09.596Z,7.30
2019-03-06T09:24:00.188Z,7.30
2019-03-06T09:26:41.052Z,7.50
2019-03-06T09:29:22.096Z,7.60
2019-03-06T09:32:03.559Z,7.40
2019-03-06T09:34:51.150Z,7.30
2019-03-06T09:37:37.171Z,7.20
2019-03-06T09:40:19.231Z,7.20
2019-03-06T09:43:08.947Z,7.20
2019-03-06T09:46:01.590Z,7.20
2019-03-06T09:48:51.194Z,7.10
2019-03-06T09:51:52.660Z,7.10
2019-03-06T09:54:55.136Z,7.20
2019-03-06T09:57:44.815Z,7.20
2019-03-06T10:00:49.338Z,7.00
2019-03-06T10:03:39.883Z,7.00
2019-03-06T10:06:19.882Z,6.90
2019-03-06T10:09:07.517Z,6.90
2019-03-06T10:11:57.144Z,7.00
2019-03-06T10:14:46.716Z,7.10
2019-03-06T10:17:39.988Z,7.30
2019-03-06T10:20:14.024Z,7.20
2019-03-06T10:22:45.358Z,7.20
2019-03-06T10:25:16.862Z,7.00
2019-03-06T10:27:47.846Z,6.80
2019-03-06T10:30:19.139Z,6.70
2019-03-06T10:32:50.110Z,6.50
2019-03-06T10:35:20.842Z,6.30
2019-03-06T10:37:52.310Z,6.30
2019-03-06T10:40:23.148Z,6.10
2019-03-06T10:42:54.058Z,6.00
2019-03-06T10:45:24.833Z,6.00
2019-03-06T10:47:55.634Z,6.10
2019-03-06T10:50:29.530Z,6.00
2019-03-06T10:53:02.613Z,6.10
2019-03-06T10:55:34.802Z,6.20
2019-03-06T10:58:06.449Z,6.10
2019-03-06T11:00:41.008Z,6.10
2019-03-06T11:03:11.730Z,6.10
2019-03-06T11:05:47.380Z,6.20
2019-03-06T11:08:19.162Z,6.30
2019-03-06T11:10:49.839Z,6.30
2019-03-06T11:13:20.564Z,6.30
2019-03-06T11:18:26.860Z,6.20
2019-03-06T11:18:55.892Z,6.20
2019-03-06T11:20:57.504Z,6.30
2019-03-06T11:23:28.285Z,6.30
2019-03-06T11:25:59.014Z,6.30
2019-03-06T11:28:29.773Z,6.20
2019-03-06T11:31:01.713Z,6.40
2019-03-06T11:33:32.385Z,6.50
2019-03-06T11:36:03.028Z,6.60
2019-03-06T11:38:33.774Z,6.60
2019-03-06T11:41:07.376Z,6.60
2019-03-06T11:43:38.269Z,6.60
2019-03-06T11:46:09.670Z,6.60
2019-03-06T11:48:40.272Z,6.70
2019-03-06T11:51:10.806Z,6.80
2019-03-06T11:53:41.557Z,6.80
2019-03-06T11:56:13.809Z,6.70
2019-03-06T11:58:45.011Z,6.80
2019-03-06T12:01:18.857Z,6.80
2019-03-06T12:03:50.485Z,6.90
2019-03-06T12:06:21.265Z,7.00
2019-03-06T12:08:56.087Z,7.00
2019-03-06T12:11:26.721Z,7.00
2019-03-06T12:13:57.573Z,6.90
2019-03-06T12:16:29.937Z,7.00
2019-03-06T12:19:00.664Z,6.90
2019-03-06T12:21:31.516Z,7.00
2019-03-06T12:24:04.410Z,6.90
2019-03-06T12:26:34.901Z,7.00
2019-03-06T12:29:05.575Z,7.00
2019-03-06T12:31:36.343Z,7.00
2019-03-06T12:34:07.054Z,7.00
2019-03-06T12:36:37.527Z,7.00
2019-03-06T12:39:30.881Z,7.10
2019-03-06T12:41:50.456Z,7.10
2019-03-06T12:44:23.281Z,7.20
2019-03-06T12:46:58.478Z,7.30
2019-03-06T12:49:34.789Z,7.20
2019-03-06T12:52:21.253Z,7.30
2019-03-06T12:55:04.536Z,7.30
2019-03-06T12:57:44.618Z,7.40
2019-03-06T13:00:19.358Z,7.30
2019-03-06T13:03:18.333Z,7.50
2019-03-06T13:05:54.118Z,7.60
2019-03-06T13:08:49.823Z,7.70
2019-03-06T13:11:13.991Z,7.60
2019-03-06T13:13:44.754Z,7.60
2019-03-06T13:16:31.072Z,7.80
2019-03-06T13:19:01.791Z,7.70
2019-03-06T13:21:32.621Z,7.70
2019-03-06T13:24:03.969Z,7.70
2019-03-06T13:26:35.030Z,7.70
2019-03-06T13:29:06.593Z,7.70
2019-03-06T13:31:37.826Z,7.70
2019-03-06T13:34:30.502Z,7.70
2019-03-06T13:37:01.521Z,7.80
2019-03-06T13:39:32.397Z,7.80
2019-03-06T13:42:03.560Z,7.80
2019-03-06T13:44:35.121Z,7.80
2019-03-06T13:47:05.941Z,7.80
2019-03-06T13:49:37.287Z,7.80
2019-03-06T13:52:08.020Z,7.90
2019-03-06T13:54:38.984Z,7.90
2019-03-06T13:57:11.179Z,7.90
2019-03-06T13:59:41.871Z,8.00
2019-03-06T14:02:12.805Z,8.00
2019-03-06T14:45:35.423Z,7.80
2019-03-06T14:48:06.132Z,7.70
2019-03-06T14:50:38.664Z,7.70
2019-03-06T14:53:09.416Z,7.60
2019-03-06T14:55:42.597Z,7.60
2019-03-06T14:58:14.840Z,7.50
2019-03-06T15:00:47.028Z,7.40
2019-03-06T15:03:17.437Z,7.40
2019-03-06T15:05:48.631Z,7.40
2019-03-06T15:08:22.096Z,7.40
2019-03-06T15:10:55.916Z,7.30
2019-03-06T15:13:26.227Z,7.30
2019-03-06T15:15:59.840Z,7.30
2019-03-06T15:18:30.601Z,7.30
2019-03-06T15:21:01.079Z,7.30
2019-03-06T15:23:31.640Z,7.30
2019-03-06T15:26:05.543Z,7.30
2019-03-06T15:28:37.720Z,7.20
2019-03-06T15:31:08.632Z,7.20
2019-03-06T15:33:39.087Z,7.20
2019-03-06T15:36:09.601Z,7.10
2019-03-06T15:38:41.679Z,7.10
2019-03-06T15:41:12.154Z,7.10
2019-03-06T15:43:42.666Z,7.10
2019-03-06T15:46:16.066Z,7.10
2019-03-06T15:48:46.404Z,7.10
2019-03-06T15:51:19.567Z,7.10
2019-03-06T15:53:53.116Z,7.10
2019-03-06T15:56:25.655Z,7.10
2019-03-06T15:58:57.192Z,7.10
2019-03-06T16:08:13.914Z,7.00
2019-03-06T16:10:49.447Z,7.00
2019-03-06T16:13:19.986Z,7.00
2019-03-06T16:15:50.613Z,7.00
2019-03-06T16:18:21.187Z,7.00
2019-03-06T16:20:51.648Z,6.90
2019-03-06T16:23:22.461Z,6.80
2019-03-06T16:25:52.887Z,6.80
2019-03-06T16:28:23.664Z,6.80
2019-03-06T16:30:54.127Z,6.70
2019-03-06T16:33:25.598Z,6.70
2019-03-06T16:35:56.445Z,6.50
2019-03-06T16:38:30.016Z,6.50
2019-03-06T16:41:00.512Z,6.50
2019-03-06T16:43:31.331Z,6.50
2019-03-06T16:46:01.707Z,6.40
2019-03-06T16:48:32.888Z,6.40
2019-03-06T16:51:03.651Z,6.40
2019-03-06T16:53:34.540Z,6.30
2019-03-06T16:56:06.281Z,6.30
2019-03-06T16:58:37.287Z,6.20
2019-03-06T17:01:08.582Z,6.20
2019-03-06T17:03:40.006Z,6.20
2019-03-06T17:06:12.289Z,6.20
2019-03-06T17:08:42.749Z,6.10
2019-03-06T17:11:13.450Z,6.10
2019-03-06T17:13:44.059Z,6.10
2019-03-06T17:16:14.639Z,6.10
2019-03-06T17:18:45.340Z,6.10
2019-03-06T17:21:15.801Z,6.10
2019-03-06T17:23:46.296Z,6.10
2019-03-06T17:26:16.889Z,6.10
2019-03-06T17:28:47.522Z,6.10
2019-03-06T17:31:19.122Z,6.10
2019-03-06T17:33:49.686Z,6.00
2019-03-06T17:36:19.997Z,6.00
2019-03-06T17:38:51.816Z,6.00
2019-03-06T17:41:22.280Z,6.00
2019-03-06T17:43:52.714Z,5.90
2019-03-06T17:46:23.230Z,5.80
2019-03-06T17:48:53.634Z,5.70
2019-03-06T17:51:24.183Z,5.60
2019-03-06T17:53:54.726Z,5.60
2019-03-06T17:56:25.480Z,5.50
2019-03-06T17:58:55.985Z,5.50
2019-03-06T18:01:27.392Z,5.50
2019-03-06T18:04:17.107Z,5.40
2019-03-06T18:06:47.769Z,5.40
2019-03-06T18:09:19.166Z,5.30
2019-03-06T18:11:49.665Z,5.30
2019-03-06T18:14:22.533Z,5.30
2019-03-06T18:16:53.296Z,5.20
2019-03-06T18:19:23.724Z,5.10
2019-03-06T18:21:54.340Z,5.10
2019-03-06T18:24:27.068Z,5.10
2019-03-06T18:26:57.963Z,5.00
2019-03-06T18:29:28.356Z,5.00
2019-03-06T18:31:58.698Z,5.00
2019-03-06T18:34:29.060Z,5.00
2019-03-06T18:36:59.552Z,5.00
2019-03-06T18:39:30.118Z,5.00
2019-03-06T18:42:00.486Z,5.00
2019-03-06T18:44:31.166Z,5.00
2019-03-06T18:47:01.477Z,4.90
2019-03-06T18:49:31.919Z,4.90
2019-03-06T18:52:02.267Z,4.80
2019-03-06T18:54:33.002Z,4.80
2019-03-06T18:57:03.673Z,4.90
2019-03-06T18:59:34.238Z,4.80
2019-03-06T19:02:04.856Z,4.80
2019-03-06T19:04:35.339Z,4.80
2019-03-06T19:07:05.882Z,4.80
2019-03-06T19:09:36.572Z,4.80
2019-03-06T19:12:07.054Z,4.80
2019-03-06T19:14:37.509Z,4.80
2019-03-06T19:17:10.664Z,4.80
2019-03-06T19:19:44.288Z,4.80
2019-03-06T19:22:14.595Z,4.80
2019-03-06T19:24:48.093Z,4.70
2019-03-06T19:27:18.499Z,4.70
2019-03-06T19:29:49.068Z,4.70
2019-03-06T19:32:19.481Z,4.70
2019-03-06T19:34:51.451Z,4.70
2019-03-06T19:37:21.856Z,4.70
2019-03-06T19:39:52.432Z,4.60
2019-03-06T19:42:24.320Z,4.70
2019-03-06T19:44:54.583Z,4.60
2019-03-06T19:47:26.224Z,4.70
2019-03-06T19:49:56.783Z,4.70
2019-03-06T19:52:27.264Z,4.70
2019-03-06T19:54:57.723Z,4.70
2019-03-06T19:57:28.291Z,4.70
2019-03-06T19:59:58.985Z,4.80
2019-03-06T20:05:25.779Z,4.80
2019-03-06T20:07:56.324Z,4.80
2019-03-06T20:10:26.998Z,4.70
2019-03-06T20:12:59.677Z,4.80
2019-03-06T20:15:30.112Z,4.70
2019-03-06T20:18:00.633Z,4.80
2019-03-06T20:20:31.191Z,4.80
2019-03-06T20:23:02.007Z,4.70
2019-03-06T20:25:32.407Z,4.60
2019-03-06T20:28:02.872Z,4.50
2019-03-06T20:30:33.610Z,4.50
2019-03-06T20:33:04.098Z,4.50
2019-03-06T20:35:34.726Z,4.50
2019-03-06T20:38:07.384Z,4.40
2019-03-06T20:40:37.908Z,4.50
2019-03-06T20:43:14.470Z,4.50
2019-03-06T20:45:47.812Z,4.50
2019-03-06T20:48:18.401Z,4.60
2019-03-06T20:50:48.785Z,4.60
2019-03-06T20:53:19.536Z,4.70
2019-03-06T20:55:49.903Z,4.70
2019-03-06T20:58:20.451Z,4.70
2019-03-06T21:00:50.847Z,4.80
2019-03-06T21:03:21.596Z,4.70
2019-03-06T21:05:51.983Z,4.80
2019-03-06T21:08:22.598Z,4.80
2019-03-06T21:10:53.031Z,4.90
2019-03-06T21:13:23.825Z,4.80
2019-03-06T21:15:54.203Z,4.90
2019-03-06T21:18:24.671Z,4.90
2019-03-06T21:20:55.202Z,4.90
2019-03-06T21:23:26.567Z,4.90
2019-03-06T21:25:57.274Z,5.00
2019-03-06T21:28:27.728Z,5.00
2019-03-06T21:31:00.207Z,5.10
2019-03-06T21:33:30.583Z,5.00
2019-03-06T21:36:01.310Z,5.00
2019-03-06T21:38:31.837Z,5.00
2019-03-06T21:41:05.191Z,5.10
2019-03-06T21:43:36.769Z,5.20
2019-03-06T21:46:07.208Z,5.20
2019-03-06T21:48:37.796Z,5.30
2019-03-06T21:51:08.184Z,5.40
2019-03-06T21:53:39.228Z,5.40
2019-03-06T21:56:11.578Z,5.40
2019-03-06T21:58:42.159Z,5.50
2019-03-06T22:01:13.825Z,5.50
2019-03-06T22:03:45.609Z,5.60
2019-03-06T22:06:17.742Z,5.70
2019-03-06T22:08:48.558Z,5.70
2019-03-06T22:11:19.199Z,5.80
2019-03-06T22:13:49.840Z,5.90
2019-03-06T22:16:20.246Z,6.00
2019-03-06T22:18:50.569Z,6.00
2019-03-06T22:21:22.019Z,6.00
2019-03-06T22:23:52.619Z,6.00
2019-03-06T22:26:23.266Z,6.10
2019-03-06T22:28:53.652Z,6.10
2019-03-06T22:31:24.316Z,6.10
2019-03-06T22:33:54.579Z,6.10
2019-03-06T22:36:25.535Z,6.10
2019-03-06T22:38:55.845Z,6.10
2019-03-06T22:41:26.995Z,6.20
2019-03-06T22:43:57.580Z,6.20
2019-03-06T22:46:28.041Z,6.20
2019-03-06T22:48:58.555Z,6.20
2019-03-06T22:51:29.052Z,6.20
2019-03-06T22:53:59.723Z,6.20
2019-03-06T22:56:30.963Z,6.20
2019-03-06T22:59:01.500Z,6.20
2019-03-06T23:01:34.367Z,6.30
2019-03-06T23:04:05.338Z,6.30
2019-03-06T23:06:36.195Z,6.30
2019-03-06T23:09:10.656Z,6.30
2019-03-06T23:11:42.015Z,6.30
2019-03-06T23:14:12.598Z,6.30
2019-03-06T23:16:42.905Z,6.30
2019-03-06T23:19:14.253Z,6.30
2019-03-06T23:21:44.671Z,6.30
2019-03-06T23:24:15.253Z,6.40
2019-03-06T23:26:46.276Z,6.40
2019-03-06T23:29:16.696Z,6.40
2019-03-06T23:31:50.435Z,6.40
2019-03-06T23:34:21.092Z,6.50
2019-03-06T23:36:51.791Z,6.50
2019-03-06T23:39:22.575Z,6.50
2019-03-06T23:41:53.673Z,6.50
2019-03-06T23:44:24.213Z,6.50
2019-03-06T23:46:54.914Z,6.40
2019-03-06T23:49:25.452Z,6.40
2019-03-06T23:52:00.355Z,6.40
2019-03-06T23:54:31.192Z,6.50
2019-03-06T23:57:01.871Z,6.50
2019-03-06T23:59:33.398Z,6.50
